Time;durP1;ratioP1;P1;durP2;ratioP2;P2;SDS_P1;SDS_P2;PMS_P1;PMS_P2;Temp;Humidity;BMP_temperature;BMP_pressure;BME280_temperature;BME280_humidity;BME280_pressure;Samples;Min_cycle;Max_cycle;Signal;HPM_P1;HPM_P2
2022/02/15 00:01:03;;;;;;;8.10;3.83;;;;;;;6.97;73.74;98687.75;5088040;28;20036;-70
2022/02/15 00:03:30;;;;;;;10.98;4.32;;;;;;;7.00;73.72;98687.59;5087961;28;20085;-70
2022/02/15 00:05:56;;;;;;;9.35;4.85;;;;;;;6.98;73.61;98687.66;5087369;28;20367;-70
2022/02/15 00:08:21;;;;;;;9.38;4.45;;;;;;;6.99;73.37;98680.63;5082109;28;20028;-70
2022/02/15 00:10:47;;;;;;;10.07;4.55;;;;;;;6.99;73.64;98694.59;5096681;28;20047;-70
2022/02/15 00:13:13;;;;;;;13.13;4.40;;;;;;;6.96;73.80;98686.03;5067663;28;20036;-70
2022/02/15 00:15:39;;;;;;;6.85;4.15;;;;;;;6.93;73.67;98686.22;5080497;28;20043;-70
2022/02/15 00:18:05;;;;;;;6.28;3.92;;;;;;;6.92;73.50;98695.00;5087561;28;20024;-70
2022/02/15 00:20:30;;;;;;;7.90;4.35;;;;;;;6.92;73.49;98692.38;5088071;28;20436;-70
2022/02/15 00:22:55;;;;;;;12.63;4.50;;;;;;;6.93;73.47;98688.81;5088052;28;20085;-70
2022/02/15 00:25:21;;;;;;;8.20;4.25;;;;;;;6.94;73.56;98690.50;5087902;28;20051;-69
2022/02/15 00:27:47;;;;;;;9.98;4.70;;;;;;;6.93;73.43;98687.03;5069808;28;20523;-68
2022/02/15 00:30:13;;;;;;;13.20;4.90;;;;;;;6.91;73.28;98699.38;5086565;28;20044;-68
2022/02/15 00:32:38;;;;;;;5.65;3.83;;;;;;;6.89;73.39;98706.47;5087125;28;20499;-69
2022/02/15 00:35:05;;;;;;;10.90;5.45;;;;;;;6.90;73.33;98709.94;5104566;28;20028;-68
2022/02/15 00:37:30;;;;;;;9.80;4.80;;;;;;;6.86;73.47;98707.47;5107192;28;20031;-68
2022/02/15 00:39:56;;;;;;;11.63;4.65;;;;;;;6.87;73.45;98708.34;5106833;28;20113;-69
2022/02/15 00:42:21;;;;;;;7.13;3.65;;;;;;;6.91;73.30;98711.63;5107085;28;20028;-70
2022/02/15 00:44:46;;;;;;;8.95;3.83;;;;;;;6.89;73.12;98709.09;5088132;28;20100;-70
2022/02/15 00:47:12;;;;;;;8.95;4.20;;;;;;;6.89;73.27;98714.31;5109080;28;20024;-70
2022/02/15 00:49:37;;;;;;;10.98;4.18;;;;;;;6.90;73.42;98712.56;5109019;28;20515;-70
2022/02/15 00:52:03;;;;;;;12.57;4.30;;;;;;;6.89;73.10;98709.09;5109333;28;20039;-70
2022/02/15 00:54:28;;;;;;;10.48;4.65;;;;;;;6.90;73.16;98718.66;5107897;28;20035;-71
2022/02/15 00:56:53;;;;;;;8.70;3.53;;;;;;;6.86;73.17;98719.72;5107988;28;20122;-70
2022/02/15 00:59:19;;;;;;;7.88;4.47;;;;;;;6.86;73.29;98720.56;5110483;28;20045;-70
2022/02/15 01:01:44;;;;;;;10.70;4.32;;;;;;;6.87;73.17;98724.06;5110339;28;20097;-70
2022/02/15 01:04:09;;;;;;;10.30;4.20;;;;;;;6.87;73.30;98719.66;5109204;28;20032;-70
2022/02/15 01:06:36;;;;;;;7.63;3.35;;;;;;;6.83;73.61;98719.88;5106730;28;20441;-69
2022/02/15 01:09:02;;;;;;;7.78;4.13;;;;;;;6.84;73.65;98726.81;5106946;28;20036;-69
2022/02/15 01:11:27;;;;;;;7.65;4.30;;;;;;;6.86;73.73;98725.81;5107530;28;20040;-70
2022/02/15 01:13:53;;;;;;;7.35;4.03;;;;;;;6.86;73.64;98727.59;5107901;28;20036;-70
2022/02/15 01:16:18;;;;;;;10.20;4.07;;;;;;;6.89;73.70;98730.03;5107013;28;20327;-70
2022/02/15 01:18:44;;;;;;;9.95;4.28;;;;;;;6.88;73.53;98730.97;5107135;28;20396;-69
2022/02/15 01:21:09;;;;;;;9.55;4.00;;;;;;;6.91;73.63;98738.66;5106759;28;20032;-70
2022/02/15 01:23:35;;;;;;;11.93;4.38;;;;;;;6.89;73.64;98735.28;5107101;28;20043;-69
2022/02/15 01:26:00;;;;;;;7.07;3.97;;;;;;;6.87;74.02;98737.16;5109704;28;20043;-70
2022/02/15 01:28:25;;;;;;;11.52;5.25;;;;;;;6.82;74.08;98733.94;5110875;28;20046;-69
2022/02/15 01:30:51;;;;;;;7.20;4.47;;;;;;;6.77;74.26;98735.91;5110863;28;20077;-69
2022/02/15 01:33:16;;;;;;;7.80;4.10;;;;;;;6.79;74.43;98750.66;5110689;28;20114;-69
2022/02/15 01:35:42;;;;;;;11.68;4.20;;;;;;;6.80;74.55;98747.09;5110364;28;20520;-69
2022/02/15 01:38:08;;;;;;;9.82;4.40;;;;;;;6.80;74.55;98741.84;5111139;28;20038;-70
2022/02/15 01:40:34;;;;;;;7.53;4.25;;;;;;;6.82;74.24;98745.25;5110435;28;20122;-70
2022/02/15 01:42:59;;;;;;;8.90;4.93;;;;;;;6.83;74.17;98746.94;5110647;28;20031;-69
2022/02/15 01:45:25;;;;;;;12.90;4.43;;;;;;;6.81;74.27;98747.94;5110969;28;20031;-69
2022/02/15 01:47:50;;;;;;;11.60;4.32;;;;;;;6.81;74.51;98756.63;5108542;28;20038;-69
2022/02/15 01:50:16;;;;;;;9.73;3.95;;;;;;;6.80;74.52;98754.09;5109859;28;20102;-69
2022/02/15 01:52:42;;;;;;;7.28;4.13;;;;;;;6.78;74.63;98755.94;5110416;28;20063;-69
2022/02/15 01:55:12;;;;;;;9.00;4.80;;;;;;;6.80;74.51;98761.97;5108380;28;20038;-69
2022/02/15 01:57:37;;;;;;;12.38;4.95;;;;;;;6.79;74.58;98763.75;5110622;28;20382;-69
2022/02/15 02:00:06;;;;;;;10.40;4.38;;;;;;;6.78;74.39;98758.56;5108492;28;20039;-69
2022/02/15 02:02:31;;;;;;;6.97;4.55;;;;;;;6.79;74.76;98762.88;5070051;28;20035;-69
2022/02/15 02:07:41;;;;;;;8.32;4.43;;;;;;;6.80;74.78;98770.66;5089729;28;20039;-69
2022/02/15 02:10:07;;;;;;;8.10;4.32;;;;;;;6.81;74.71;98768.88;5106708;28;20801;-69
2022/02/15 02:12:34;;;;;;;9.30;4.88;;;;;;;6.81;74.80;98774.97;5102287;28;20063;-69
2022/02/15 02:15:07;;;;;;;10.60;5.97;;;;;;;6.83;74.82;98772.28;5089439;28;20117;-69
2022/02/15 02:17:33;;;;;;;11.23;4.57;;;;;;;6.83;74.58;98772.28;5071988;28;20050;-69
2022/02/15 02:19:59;;;;;;;10.55;4.43;;;;;;;6.84;74.87;98774.84;5088845;28;20405;-70
2022/02/15 02:22:27;;;;;;;9.25;4.05;;;;;;;6.85;74.86;98779.13;5089861;28;20155;-69
2022/02/15 02:24:53;;;;;;;10.65;5.28;;;;;;;6.85;74.74;98775.69;5089407;28;20032;-69
2022/02/15 02:27:24;;;;;;;12.90;5.03;;;;;;;6.85;74.82;98780.91;5091015;28;20028;-70
2022/02/15 02:29:54;;;;;;;11.30;5.75;;;;;;;6.78;74.86;98769.88;5089072;28;20041;-69
2022/02/15 02:32:20;;;;;;;13.13;6.10;;;;;;;6.76;75.33;98786.59;5089421;28;20024;-70
2022/02/15 02:34:45;;;;;;;16.70;8.13;;;;;;;6.73;75.25;98786.75;5070904;28;20400;-69
2022/02/15 02:37:13;;;;;;;11.55;7.60;;;;;;;6.72;75.43;98788.53;5089196;28;20032;-69
2022/02/15 02:39:40;;;;;;;14.82;9.10;;;;;;;6.72;75.34;98795.53;5088579;28;20040;-70
2022/02/15 02:42:06;;;;;;;11.75;7.13;;;;;;;6.74;75.35;98796.31;5089118;28;20039;-69
2022/02/15 02:44:31;;;;;;;9.98;6.90;;;;;;;6.76;75.56;98795.31;5089286;28;20036;-69
2022/02/15 02:46:56;;;;;;;18.58;9.00;;;;;;;6.78;75.23;98800.47;5089401;28;20040;-69
2022/02/15 02:49:22;;;;;;;13.00;7.60;;;;;;;6.76;75.21;98803.16;5088364;28;20055;-69
2022/02/15 02:51:47;;;;;;;16.17;8.00;;;;;;;6.75;75.36;98803.25;5088713;28;20050;-69
2022/02/15 02:54:12;;;;;;;12.38;7.82;;;;;;;6.69;75.35;98807.00;5088772;28;20404;-69
2022/02/15 02:56:38;;;;;;;11.43;7.50;;;;;;;6.65;75.67;98806.31;5088056;28;20085;-69
2022/02/15 02:59:03;;;;;;;15.02;8.05;;;;;;;6.63;75.48;98807.31;5108959;28;20048;-69
2022/02/15 03:01:28;;;;;;;13.20;6.85;;;;;;;6.62;75.51;98806.47;5110076;28;20519;-69
2022/02/15 03:03:54;;;;;;;13.40;7.65;;;;;;;6.58;75.56;98812.78;5109823;28;20028;-69
2022/02/15 03:06:21;;;;;;;12.27;7.78;;;;;;;6.58;75.82;98817.19;5109030;28;20058;-69
2022/02/15 03:08:47;;;;;;;16.63;8.88;;;;;;;6.59;75.54;98817.06;5109425;28;20093;-69
2022/02/15 03:11:12;;;;;;;13.00;8.05;;;;;;;6.58;75.46;98819.78;5108585;28;20031;-69
2022/02/15 03:13:37;;;;;;;13.70;7.90;;;;;;;6.59;75.68;98822.31;5108804;28;20043;-71
2022/02/15 03:16:03;;;;;;;12.07;8.32;;;;;;;6.59;75.87;98816.25;5108531;28;20042;-70
2022/02/15 03:18:28;;;;;;;16.85;8.48;;;;;;;6.54;75.84;98813.00;5091213;28;20110;-70
2022/02/15 03:20:54;;;;;;;11.73;8.23;;;;;;;6.52;76.17;98820.94;5108542;28;20040;-69
2022/02/15 03:23:19;;;;;;;11.25;8.65;;;;;;;6.52;76.13;98814.84;5108827;28;20065;-69
2022/02/15 03:25:44;;;;;;;10.48;8.07;;;;;;;6.49;76.59;98809.75;5108498;28;20063;-69
2022/02/15 03:28:10;;;;;;;14.18;8.75;;;;;;;6.48;75.99;98819.38;5109068;28;20036;-69
2022/02/15 03:30:35;;;;;;;15.20;8.02;;;;;;;6.45;76.00;98820.38;5108135;28;20056;-69
2022/02/15 03:33:00;;;;;;;10.25;7.40;;;;;;;6.46;76.41;98829.09;5107369;28;20054;-69
2022/02/15 03:35:26;;;;;;;13.93;7.15;;;;;;;6.48;76.14;98837.72;5108780;28;20394;-69
2022/02/15 03:37:51;;;;;;;12.98;8.18;;;;;;;6.46;76.04;98844.78;5108612;28;20373;-70
2022/02/15 03:40:16;;;;;;;12.55;8.25;;;;;;;6.45;76.09;98845.72;5108098;28;20084;-69
2022/02/15 03:45:26;;;;;;;15.15;8.07;;;;;;;6.42;76.01;98849.34;5093127;28;20046;-69
2022/02/15 03:47:52;;;;;;;9.45;7.97;;;;;;;6.42;76.03;98853.69;5107885;28;20043;-70
2022/02/15 03:50:18;;;;;;;12.65;8.25;;;;;;;6.42;76.48;98861.56;5107893;28;20499;-69
2022/02/15 03:52:43;;;;;;;10.48;7.85;;;;;;;6.42;76.21;98867.66;5108088;28;20131;-69
2022/02/15 03:55:09;;;;;;;16.77;7.75;;;;;;;6.41;76.54;98867.72;5108095;28;20050;-71
2022/02/15 03:57:37;;;;;;;10.88;6.93;;;;;;;6.39;76.17;98867.78;5108470;28;20118;-70
2022/02/15 04:00:06;;;;;;;10.40;7.60;;;;;;;6.36;76.30;98883.63;5107617;28;20035;-70
2022/02/15 04:02:32;;;;;;;13.27;7.55;;;;;;;6.34;76.12;98885.47;5104937;28;20040;-70
2022/02/15 04:04:57;;;;;;;14.57;7.90;;;;;;;6.32;76.75;98879.47;5107285;28;20046;-70
2022/02/15 04:07:22;;;;;;;17.75;8.70;;;;;;;6.31;76.50;98880.38;5107772;28;20084;-70
2022/02/15 04:09:48;;;;;;;14.02;8.38;;;;;;;6.34;76.32;98887.25;5107834;28;20150;-70
2022/02/15 04:12:13;;;;;;;17.45;8.95;;;;;;;6.36;76.53;98893.28;5107907;28;20478;-70
2022/02/15 04:14:38;;;;;;;12.45;8.23;;;;;;;6.35;76.93;98895.03;5106928;28;20047;-70
2022/02/15 04:17:04;;;;;;;11.90;8.52;;;;;;;6.38;77.24;98894.91;5089674;28;20024;-70
2022/02/15 04:19:29;;;;;;;14.55;8.13;;;;;;;6.37;77.51;98900.19;5107600;28;20044;-70
2022/02/15 04:21:56;;;;;;;12.98;9.15;;;;;;;6.35;77.88;98902.03;5107057;28;20496;-70
2022/02/15 04:24:22;;;;;;;13.45;9.07;;;;;;;6.34;78.41;98906.41;5107856;28;20091;-71
2022/02/15 04:26:47;;;;;;;12.20;8.05;;;;;;;6.33;78.48;98914.38;5107494;28;20032;-70
2022/02/15 04:29:14;;;;;;;14.30;8.85;;;;;;;6.33;77.94;98917.81;5107358;28;20107;-70
2022/02/15 04:31:40;;;;;;;14.73;9.25;;;;;;;6.31;78.34;98921.44;5106568;28;20032;-70
2022/02/15 04:34:05;;;;;;;13.30;8.85;;;;;;;6.29;78.65;98926.72;5105855;28;20043;-70
2022/02/15 04:36:30;;;;;;;16.40;10.55;;;;;;;6.28;78.73;98925.03;5089107;28;20131;-70
2022/02/15 04:38:56;;;;;;;13.48;9.13;;;;;;;6.26;78.42;98931.25;5085403;28;20062;-70
2022/02/15 04:41:21;;;;;;;14.50;9.52;;;;;;;6.29;79.13;98938.97;5086971;28;21434;-70
2022/02/15 04:43:47;;;;;;;17.42;11.05;;;;;;;6.23;79.57;98933.09;5087781;28;20555;-70
2022/02/15 04:46:12;;;;;;;17.77;10.52;;;;;;;6.19;80.12;98933.28;5086986;28;20032;-71
2022/02/15 04:48:37;;;;;;;18.23;10.45;;;;;;;6.15;80.23;98942.19;5068858;28;20619;-70
2022/02/15 04:51:03;;;;;;;16.50;10.30;;;;;;;6.14;80.07;98949.19;5086955;28;20493;-71
2022/02/15 04:53:28;;;;;;;13.40;8.95;;;;;;;6.12;80.37;98947.56;5087933;28;20557;-70
2022/02/15 04:55:53;;;;;;;15.40;8.80;;;;;;;6.13;80.09;98951.88;5086484;28;20039;-70
2022/02/15 04:58:20;;;;;;;13.95;8.13;;;;;;;6.08;79.85;98949.50;5087946;28;20028;-70
2022/02/15 05:00:47;;;;;;;10.40;7.32;;;;;;;6.07;79.41;98952.16;5092974;28;20042;-70
2022/02/15 05:03:12;;;;;;;9.82;6.72;;;;;;;6.06;79.47;98955.72;5091216;28;20668;-70
2022/02/15 05:05:38;;;;;;;10.98;7.10;;;;;;;6.05;79.68;98967.91;5072300;28;20150;-70
2022/02/15 05:08:03;;;;;;;12.20;9.07;;;;;;;6.05;80.33;98957.44;5091342;28;20040;-70
2022/02/15 05:10:29;;;;;;;12.02;8.52;;;;;;;5.91;80.70;98962.44;5089220;28;20040;-70
2022/02/15 05:12:54;;;;;;;12.07;8.35;;;;;;;5.85;81.72;98966.13;5090966;28;20078;-70
2022/02/15 05:15:19;;;;;;;14.07;8.85;;;;;;;5.84;81.53;98974.06;5091292;28;20109;-70
2022/02/15 05:17:46;;;;;;;12.32;7.80;;;;;;;5.83;81.12;98975.81;5091308;28;20032;-70
2022/02/15 05:20:12;;;;;;;10.45;8.00;;;;;;;5.85;81.23;98979.22;5091347;28;20540;-70
2022/02/15 05:22:38;;;;;;;15.18;7.72;;;;;;;5.85;81.43;98978.38;5090612;28;20047;-70
2022/02/15 05:25:04;;;;;;;13.23;7.63;;;;;;;5.82;81.53;98985.44;5072717;28;20032;-71
2022/02/15 05:27:30;;;;;;;17.80;10.52;;;;;;;5.82;81.47;98968.91;5090508;28;20032;-70
2022/02/15 05:29:55;;;;;;;15.13;8.68;;;;;;;5.79;81.13;98979.50;5090354;28;20438;-70
2022/02/15 05:32:21;;;;;;;11.60;8.10;;;;;;;5.79;81.41;98975.09;5090508;28;20115;-70
2022/02/15 05:34:47;;;;;;;12.80;8.25;;;;;;;5.79;81.41;98972.50;5090402;28;20783;-70
2022/02/15 05:37:12;;;;;;;12.45;9.07;;;;;;;5.78;80.98;98975.16;5089929;28;20119;-70
2022/02/15 05:39:39;;;;;;;9.95;7.13;;;;;;;5.75;80.80;98981.38;5089952;28;20028;-70
2022/02/15 05:42:05;;;;;;;16.40;8.95;;;;;;;5.75;80.85;98991.84;5090663;28;20036;-69
2022/02/15 05:44:31;;;;;;;14.43;8.65;;;;;;;5.74;81.29;98992.75;5072244;28;20098;-70
2022/02/15 05:46:56;;;;;;;15.60;9.25;;;;;;;5.71;80.99;98990.28;5090004;28;20505;-70
2022/02/15 05:49:22;;;;;;;15.23;9.63;;;;;;;5.71;81.55;98992.03;5089785;28;20067;-70
2022/02/15 05:51:47;;;;;;;16.42;9.93;;;;;;;5.67;81.40;98988.69;5090074;28;20042;-70
2022/02/15 05:54:12;;;;;;;13.98;9.82;;;;;;;5.65;81.76;98984.47;5096156;28;20027;-70
2022/02/15 05:56:38;;;;;;;13.00;9.93;;;;;;;5.65;81.77;98987.06;5110570;28;20027;-70
2022/02/15 05:59:03;;;;;;;17.23;11.38;;;;;;;5.61;82.12;98994.16;5110522;28;20053;-71
2022/02/15 06:01:28;;;;;;;23.35;12.40;;;;;;;5.62;82.09;98993.28;5091440;28;20040;-70
2022/02/15 06:04:12;;;;;;;15.70;11.25;;;;;;;5.64;82.10;98998.47;5110505;28;20031;-70
2022/02/15 06:06:39;;;;;;;23.13;12.57;;;;;;;5.68;81.94;98994.78;5110465;28;20034;-70
2022/02/15 06:09:04;;;;;;;19.77;12.65;;;;;;;5.66;82.04;98996.59;5110489;28;20460;-70
2022/02/15 06:11:30;;;;;;;19.65;13.55;;;;;;;5.65;82.18;99003.59;5110072;28;20027;-71
2022/02/15 06:13:57;;;;;;;26.30;14.70;;;;;;;5.65;81.81;99002.75;5110983;28;20101;-70
2022/02/15 06:16:25;;;;;;;21.25;13.63;;;;;;;5.66;82.36;99007.06;5109499;28;20024;-70
2022/02/15 06:18:52;;;;;;;19.98;14.18;;;;;;;5.68;81.92;99013.94;5109881;28;20385;-69
2022/02/15 06:21:17;;;;;;;23.70;14.90;;;;;;;5.71;82.37;99018.19;5109992;28;20036;-70
2022/02/15 06:23:43;;;;;;;24.00;16.58;;;;;;;5.70;82.29;99024.34;5110666;28;20400;-70
2022/02/15 06:26:09;;;;;;;32.40;17.17;;;;;;;5.69;82.23;99018.25;5109778;28;20035;-69
2022/02/15 06:28:34;;;;;;;22.35;15.10;;;;;;;5.72;82.62;99023.34;5107749;28;20063;-69
2022/02/15 06:31:00;;;;;;;21.23;15.35;;;;;;;5.72;82.47;99020.75;5108607;28;20047;-69
2022/02/15 06:33:25;;;;;;;25.50;16.38;;;;;;;5.71;82.05;99026.91;5109748;28;20508;-70
2022/02/15 06:35:51;;;;;;;27.08;17.38;;;;;;;5.75;82.37;99038.06;5109244;28;20063;-69
2022/02/15 06:38:16;;;;;;;24.33;15.05;;;;;;;5.77;82.24;99031.84;5109330;28;20036;-69
2022/02/15 06:40:42;;;;;;;30.38;16.60;;;;;;;5.78;82.00;99033.56;5109469;28;20040;-70
2022/02/15 06:43:07;;;;;;;21.52;15.20;;;;;;;5.75;81.97;99036.28;5110296;28;20027;-70
2022/02/15 06:45:32;;;;;;;23.45;14.23;;;;;;;5.72;81.81;99043.44;5109152;28;20111;-70
2022/02/15 06:47:58;;;;;;;29.85;15.38;;;;;;;5.72;81.87;99036.44;5109342;28;20042;-69
2022/02/15 06:50:25;;;;;;;26.23;16.27;;;;;;;5.73;82.03;99047.72;5109910;28;20031;-69
2022/02/15 06:52:50;;;;;;;22.35;14.45;;;;;;;5.74;82.18;99042.44;5092071;28;20032;-69
2022/02/15 06:55:16;;;;;;;30.13;16.23;;;;;;;5.76;81.70;99053.72;5109807;28;20039;-70
2022/02/15 06:57:41;;;;;;;25.58;14.18;;;;;;;5.76;81.77;99065.94;5109973;28;20040;-69
2022/02/15 07:00:07;;;;;;;29.60;14.25;;;;;;;5.76;81.02;99063.31;5088016;28;20023;-69
2022/02/15 07:02:32;;;;;;;19.00;12.85;;;;;;;5.71;81.18;99073.97;5110382;28;20027;-69
2022/02/15 07:04:58;;;;;;;22.05;14.45;;;;;;;5.74;81.26;99070.38;5109688;28;20137;-69
2022/02/15 07:07:23;;;;;;;21.45;14.32;;;;;;;5.78;80.43;99071.94;5109457;28;20051;-70
2022/02/15 07:09:49;;;;;;;26.60;14.35;;;;;;;5.76;80.82;99074.63;5096335;28;20027;-69
2022/02/15 07:12:14;;;;;;;20.45;13.32;;;;;;;5.78;80.86;99082.38;5089853;28;20040;-70
2022/02/15 07:14:39;;;;;;;20.65;13.85;;;;;;;5.75;80.61;99083.38;5088871;28;20034;-70
2022/02/15 07:17:05;;;;;;;19.02;13.75;;;;;;;5.75;80.33;99085.97;5089162;28;20094;-70
2022/02/15 07:19:32;;;;;;;22.05;14.00;;;;;;;5.78;80.36;99095.47;5087792;28;20047;-70
2022/02/15 07:22:01;;;;;;;21.40;13.98;;;;;;;5.80;79.99;99102.34;5087869;28;20033;-70
2022/02/15 07:24:27;;;;;;;17.42;12.32;;;;;;;5.80;79.77;99098.88;5087925;28;20169;-70
2022/02/15 07:26:53;;;;;;;19.90;15.05;;;;;;;5.81;79.41;99104.06;5088156;28;20507;-70
2022/02/15 07:29:18;;;;;;;22.20;11.57;;;;;;;5.85;78.95;99106.53;5087667;28;20032;-70
2022/02/15 07:31:44;;;;;;;19.58;12.38;;;;;;;5.83;78.07;99117.06;5087821;28;20028;-70
2022/02/15 07:34:09;;;;;;;16.92;10.32;;;;;;;5.83;78.35;99111.81;5088108;28;20024;-70
2022/02/15 07:36:34;;;;;;;23.75;12.48;;;;;;;5.86;78.81;99116.06;5089121;28;20033;-70
2022/02/15 07:39:00;;;;;;;15.70;10.05;;;;;;;5.88;78.07;99116.88;5087686;28;20035;-70
2022/02/15 07:41:28;;;;;;;16.55;9.68;;;;;;;5.91;78.29;99125.47;5086085;28;20043;-70
2022/02/15 07:43:54;;;;;;;13.48;8.65;;;;;;;5.91;77.86;99128.09;5088423;28;20028;-70
2022/02/15 07:46:19;;;;;;;19.77;9.73;;;;;;;5.91;77.69;99122.84;5069521;28;20046;-70
2022/02/15 07:48:45;;;;;;;15.20;9.65;;;;;;;5.91;77.23;99127.22;5087735;28;20056;-70
2022/02/15 07:51:10;;;;;;;14.00;9.43;;;;;;;5.90;77.63;99139.44;5087236;28;20036;-70
2022/02/15 07:53:36;;;;;;;19.60;9.13;;;;;;;5.90;77.90;99136.81;5087949;28;20028;-69
2022/02/15 07:56:01;;;;;;;16.67;9.05;;;;;;;5.93;78.01;99136.72;5051018;28;20040;-70
2022/02/15 07:58:26;;;;;;;24.05;10.32;;;;;;;5.94;78.59;99137.59;5088148;28;20040;-70
2022/02/15 08:00:52;;;;;;;19.63;12.57;;;;;;;5.93;77.72;99141.06;5106383;28;20153;-70
2022/02/15 08:03:18;;;;;;;18.85;11.27;;;;;;;5.94;78.25;99142.84;5107940;28;20038;-70
2022/02/15 08:05:43;;;;;;;15.48;10.40;;;;;;;5.97;78.07;99153.16;5108245;28;20106;-69
2022/02/15 08:08:09;;;;;;;30.15;12.95;;;;;;;6.02;78.08;99153.81;5108480;28;20118;-69
2022/02/15 08:10:35;;;;;;;25.02;12.32;;;;;;;6.02;78.10;99156.44;5107168;28;20476;-69
2022/02/15 08:13:01;;;;;;;16.75;11.45;;;;;;;6.02;77.64;99161.69;5107215;28;20028;-73
2022/02/15 08:15:36;;;;;;;20.58;12.10;;;;;;;6.02;77.57;99156.44;5108128;28;20420;-69
2022/02/15 08:18:03;;;;;;;22.85;12.15;;;;;;;6.03;77.35;99163.41;5108113;28;20396;-69
2022/02/15 08:20:30;;;;;;;20.45;10.45;;;;;;;6.07;77.19;99169.34;5107313;28;20039;-70
2022/02/15 08:22:55;;;;;;;18.13;11.25;;;;;;;6.10;77.04;99175.28;5107606;28;20034;-70
2022/02/15 08:25:21;;;;;;;22.27;12.95;;;;;;;6.11;77.33;99170.94;5108749;28;20118;-70
2022/02/15 08:27:46;;;;;;;19.08;11.48;;;;;;;6.15;77.63;99173.38;5103722;28;20070;-70
2022/02/15 08:30:14;;;;;;;18.50;10.35;;;;;;;6.16;76.84;99179.44;5107309;28;20027;-70
2022/02/15 08:32:40;;;;;;;19.27;11.50;;;;;;;6.13;76.64;99175.19;5108484;28;20050;-70
2022/02/15 08:35:06;;;;;;;19.23;11.50;;;;;;;6.16;76.82;99172.44;5107259;28;20032;-71
2022/02/15 08:37:33;;;;;;;23.73;11.20;;;;;;;6.18;76.42;99173.22;5107733;28;20027;-69
2022/02/15 08:39:59;;;;;;;12.95;9.55;;;;;;;6.18;76.40;99173.22;5106779;28;20093;-70
2022/02/15 08:42:25;;;;;;;23.17;10.07;;;;;;;6.21;76.30;99183.56;5107981;28;20039;-70
2022/02/15 08:44:53;;;;;;;20.30;10.77;;;;;;;6.20;76.53;99181.88;5107313;28;20405;-69
2022/02/15 08:47:19;;;;;;;18.17;9.55;;;;;;;6.18;76.11;99177.63;5106093;28;20085;-70
2022/02/15 08:49:47;;;;;;;19.85;11.63;;;;;;;6.22;76.01;99189.66;5106082;28;20073;-69
2022/02/15 08:52:13;;;;;;;18.08;9.32;;;;;;;6.27;75.99;99192.91;5107024;28;20081;-69
2022/02/15 08:54:38;;;;;;;15.55;9.13;;;;;;;6.30;74.84;99191.94;5107487;28;20032;-69
2022/02/15 08:57:05;;;;;;;22.48;10.35;;;;;;;6.35;74.16;99197.84;5107229;28;20036;-69
2022/02/15 08:59:31;;;;;;;17.08;8.80;;;;;;;6.40;74.38;99198.53;5107393;28;22310;-69
2022/02/15 09:01:56;;;;;;;16.73;8.88;;;;;;;6.43;74.57;99198.38;5106777;28;20114;-70
2022/02/15 09:04:22;;;;;;;14.30;8.73;;;;;;;6.49;74.19;99197.28;5104072;28;20047;-70
2022/02/15 09:06:47;;;;;;;10.50;8.30;;;;;;;6.56;73.93;99203.97;5106601;28;20036;-70
2022/02/15 09:09:13;;;;;;;14.38;7.95;;;;;;;6.64;73.05;99209.72;5106758;28;20081;-70
2022/02/15 09:11:39;;;;;;;18.35;7.65;;;;;;;6.64;72.05;99213.19;5107594;28;20030;-69
2022/02/15 09:14:05;;;;;;;14.02;6.97;;;;;;;6.72;72.02;99215.50;5107090;28;20039;-70
2022/02/15 09:16:31;;;;;;;10.23;7.18;;;;;;;6.78;71.64;99215.22;5107189;28;20028;-70
2022/02/15 09:18:57;;;;;;;16.05;6.65;;;;;;;6.83;71.72;99223.72;5108372;28;20123;-70
2022/02/15 09:21:22;;;;;;;14.30;6.65;;;;;;;6.83;70.28;99223.72;5107591;28;20066;-70
2022/02/15 09:23:48;;;;;;;11.70;6.80;;;;;;;6.80;70.64;99220.41;5108217;28;20047;-70
2022/02/15 09:26:13;;;;;;;10.68;6.75;;;;;;;6.79;70.50;99218.69;5107821;28;20031;-70
2022/02/15 09:28:38;;;;;;;11.52;6.15;;;;;;;6.75;70.40;99227.63;5106428;28;20492;-70
2022/02/15 09:31:05;;;;;;;13.82;6.82;;;;;;;6.73;71.29;99218.97;5107086;28;20031;-70
2022/02/15 09:33:30;;;;;;;12.25;5.95;;;;;;;6.80;71.72;99238.75;5106377;28;20055;-70
2022/02/15 09:35:57;;;;;;;11.80;7.70;;;;;;;6.85;71.13;99236.78;5107355;28;20031;-70
2022/02/15 09:38:22;;;;;;;11.90;7.72;;;;;;;6.82;69.76;99236.91;5107416;28;20092;-70
2022/02/15 09:40:49;;;;;;;11.57;7.00;;;;;;;6.98;69.63;99239.72;5106287;28;20040;-70
2022/02/15 09:43:15;;;;;;;21.80;8.05;;;;;;;7.18;68.80;99237.06;5107064;28;20112;-70
2022/02/15 09:45:51;;;;;;;16.88;7.97;;;;;;;7.52;66.98;99238.19;5108210;28;20122;-70
2022/02/15 09:48:24;;;;;;;14.55;7.22;;;;;;;8.31;64.70;99236.19;5109031;28;20043;-72
2022/02/15 09:50:51;;;;;;;14.90;7.57;;;;;;;9.69;60.78;99236.13;5109643;28;20034;-69
2022/02/15 09:53:16;;;;;;;10.05;7.22;;;;;;;10.26;58.75;99230.34;5110589;28;20045;-69
2022/02/15 09:55:42;;;;;;;12.93;7.70;;;;;;;10.36;59.50;99235.97;5108724;28;20084;-71
2022/02/15 09:58:07;;;;;;;17.83;8.73;;;;;;;10.72;57.70;99235.63;5109620;28;20409;-71
2022/02/15 10:00:35;;;;;;;14.10;6.65;;;;;;;11.76;55.51;99239.88;5072067;28;22173;-71
2022/02/15 10:03:02;;;;;;;15.23;7.78;;;;;;;12.51;52.72;99239.50;5103795;28;20036;-70
2022/02/15 10:05:34;;;;;;;11.35;7.05;;;;;;;11.49;54.07;99239.78;5098904;28;20035;-71
2022/02/15 10:08:00;;;;;;;16.48;7.57;;;;;;;10.31;56.64;99239.75;5100908;28;20034;-71
2022/02/15 10:10:37;;;;;;;13.13;7.55;;;;;;;9.51;58.69;99245.88;5106712;28;20427;-70
2022/02/15 10:13:09;;;;;;;11.15;7.53;;;;;;;8.93;60.61;99251.56;5110063;28;20023;-70
2022/02/15 10:15:37;;;;;;;14.63;7.85;;;;;;;8.63;62.37;99248.72;5110230;28;20031;-69
2022/02/15 10:18:08;;;;;;;12.77;7.20;;;;;;;8.70;61.99;99250.09;5108062;28;20197;-69
2022/02/15 10:20:36;;;;;;;15.55;7.63;;;;;;;8.94;61.53;99248.84;5089376;28;21830;-70
2022/02/15 10:23:22;;;;;;;15.55;6.95;;;;;;;9.19;60.99;99243.19;5088490;28;20492;-70
2022/02/15 10:25:48;;;;;;;12.85;7.15;;;;;;;8.90;62.12;99255.19;5088796;28;20024;-69
2022/02/15 10:28:22;;;;;;;15.20;7.82;;;;;;;8.65;61.60;99254.75;5090094;28;20024;-69
2022/02/15 10:30:50;;;;;;;15.18;7.78;;;;;;;8.56;62.49;99254.25;5088899;28;20060;-69
2022/02/15 10:33:17;;;;;;;10.73;7.00;;;;;;;9.71;59.79;99255.34;5089665;28;20401;-69
2022/02/15 10:36:03;;;;;;;11.77;5.70;;;;;;;11.55;53.80;99246.50;5085918;28;20051;-70
2022/02/15 10:38:30;;;;;;;11.52;5.18;;;;;;;12.41;49.83;99255.13;5088895;28;20043;-69
2022/02/15 10:41:05;;;;;;;7.50;4.40;;;;;;;12.62;48.09;99252.84;5089081;28;20040;-70
2022/02/15 10:43:45;;;;;;;11.03;4.33;;;;;;;12.44;48.09;99264.63;5089348;28;20107;-70
2022/02/15 10:46:16;;;;;;;8.63;4.20;;;;;;;12.00;49.92;99263.06;5089498;28;20032;-70
2022/02/15 10:48:42;;;;;;;6.93;3.22;;;;;;;11.59;50.12;99259.41;5089428;28;20034;-70
2022/02/15 10:51:08;;;;;;;9.43;3.83;;;;;;;10.93;51.42;99276.56;5089165;28;20051;-70
2022/02/15 10:53:34;;;;;;;5.85;2.75;;;;;;;10.45;51.29;99273.19;5087634;28;20642;-70
2022/02/15 10:55:59;;;;;;;5.50;2.83;;;;;;;9.98;52.92;99268.78;5086989;28;20044;-70
2022/02/15 10:58:25;;;;;;;8.55;3.75;;;;;;;9.66;53.36;99273.16;5091502;28;20042;-69
2022/02/15 11:00:51;;;;;;;8.63;3.03;;;;;;;9.94;54.18;99264.59;5086205;28;20067;-69
2022/02/15 11:03:20;;;;;;;8.07;3.30;;;;;;;9.67;53.59;99264.31;5089000;28;20055;-70
2022/02/15 11:05:45;;;;;;;5.85;3.15;;;;;;;9.45;53.00;99256.72;5088276;28;20443;-69
2022/02/15 11:08:12;;;;;;;5.43;3.10;;;;;;;9.22;52.80;99258.78;5089513;28;20036;-70
2022/02/15 11:10:51;;;;;;;7.57;3.00;;;;;;;9.21;51.15;99261.53;5088732;28;20032;-70
2022/02/15 11:13:17;;;;;;;4.55;2.38;;;;;;;9.33;52.31;99263.50;5088293;28;20520;-70
2022/02/15 11:15:50;;;;;;;7.90;2.00;;;;;;;9.44;51.03;99262.94;5089037;28;20036;-70
2022/02/15 11:18:31;;;;;;;4.25;2.10;;;;;;;9.48;50.46;99258.38;5088194;28;20028;-70
2022/02/15 11:20:58;;;;;;;7.07;2.70;;;;;;;9.60;51.01;99247.19;5088625;28;20040;-70
2022/02/15 11:23:26;;;;;;;5.03;2.10;;;;;;;9.68;51.29;99243.19;5088269;28;20790;-69
2022/02/15 11:26:15;;;;;;;6.55;1.98;;;;;;;9.59;49.66;99241.06;5088226;28;20780;-70
2022/02/15 11:28:51;;;;;;;11.65;2.65;;;;;;;9.30;51.56;99239.13;5088598;28;20032;-70
2022/02/15 11:31:25;;;;;;;12.60;4.38;;;;;;;9.22;49.96;99248.25;5070175;28;20024;-69
2022/02/15 11:33:51;;;;;;;6.07;2.65;;;;;;;9.13;49.27;99240.00;5087606;28;20024;-70